sensor_id;sensor_type;location;lat;lon;timestamp;pressure;altitude;pressure_sealevel;temperature;humidity
46954;BME280;32707;43.886;12.874;2022-08-19T05:58:14;100615.78;;;21.40;89.00
46954;BME280;32707;43.886;12.874;2022-08-19T06:00:43;100611.28;;;21.35;89.13
46954;BME280;32707;43.886;12.874;2022-08-19T06:03:09;100615.38;;;21.38;89.16
46954;BME280;32707;43.886;12.874;2022-08-19T06:05:35;100610.88;;;21.33;89.19
46954;BME280;32707;43.886;12.874;2022-08-19T06:08:01;100603.66;;;21.50;88.79
46954;BME280;32707;43.886;12.874;2022-08-19T06:10:27;100611.03;;;21.69;88.50
46954;BME280;32707;43.886;12.874;2022-08-19T06:12:53;100609.47;;;21.79;87.91
46954;BME280;32707;43.886;12.874;2022-08-19T06:15:19;100618.03;;;22.04;87.66
46954;BME280;32707;43.886;12.874;2022-08-19T06:17:45;100621.31;;;22.24;86.61
46954;BME280;32707;43.886;12.874;2022-08-19T06:20:13;100613.19;;;22.44;86.19
46954;BME280;32707;43.886;12.874;2022-08-19T06:22:41;100621.34;;;22.64;85.83
46954;BME280;32707;43.886;12.874;2022-08-19T06:25:07;100625.81;;;22.76;85.02
46954;BME280;32707;43.886;12.874;2022-08-19T06:27:34;100618.84;;;22.91;84.69
46954;BME280;32707;43.886;12.874;2022-08-19T06:30:04;100614.75;;;23.17;84.44
46954;BME280;32707;43.886;12.874;2022-08-19T06:32:33;100609.75;;;23.43;83.71
46954;BME280;32707;43.886;12.874;2022-08-19T06:34:58;100626.38;;;23.62;83.08
46954;BME280;32707;43.886;12.874;2022-08-19T06:37:24;100614.03;;;23.87;82.72
46954;BME280;32707;43.886;12.874;2022-08-19T06:39:51;100600.81;;;24.11;81.83
46954;BME280;32707;43.886;12.874;2022-08-19T06:42:16;100609.22;;;24.33;81.17
46954;BME280;32707;43.886;12.874;2022-08-19T06:44:45;100602.97;;;24.45;80.75
46954;BME280;32707;43.886;12.874;2022-08-19T06:47:14;100603.34;;;24.54;80.23
46954;BME280;32707;43.886;12.874;2022-08-19T06:49:41;100604.44;;;24.68;80.05
46954;BME280;32707;43.886;12.874;2022-08-19T06:52:08;100602.63;;;24.84;79.38
46954;BME280;32707;43.886;12.874;2022-08-19T06:54:36;100614.31;;;25.01;79.14
46954;BME280;32707;43.886;12.874;2022-08-19T06:57:02;100605.91;;;25.25;78.10
46954;BME280;32707;43.886;12.874;2022-08-19T06:59:28;100610.13;;;25.47;77.20
46954;BME280;32707;43.886;12.874;2022-08-19T07:01:59;100618.94;;;25.91;76.14
46954;BME280;32707;43.886;12.874;2022-08-19T07:04:28;100621.41;;;26.19;74.93
46954;BME280;32707;43.886;12.874;2022-08-19T07:07:00;100621.66;;;26.29;74.44
46954;BME280;32707;43.886;12.874;2022-08-19T07:09:26;100623.03;;;26.44;73.86
46954;BME280;32707;43.886;12.874;2022-08-19T07:11:53;100610.50;;;26.34;74.43
46954;BME280;32707;43.886;12.874;2022-08-19T07:14:25;100611.13;;;25.95;75.17
46954;BME280;32707;43.886;12.874;2022-08-19T07:16:52;100604.63;;;25.60;76.34
46954;BME280;32707;43.886;12.874;2022-08-19T07:19:21;100597.50;;;25.41;76.93
46954;BME280;32707;43.886;12.874;2022-08-19T07:21:49;100599.94;;;25.42;76.99
46954;BME280;32707;43.886;12.874;2022-08-19T07:24:17;100602.44;;;25.40;76.92
46954;BME280;32707;43.886;12.874;2022-08-19T07:26:43;100607.31;;;25.44;76.77
46954;BME280;32707;43.886;12.874;2022-08-19T07:29:12;100616.75;;;25.40;76.52
46954;BME280;32707;43.886;12.874;2022-08-19T07:31:38;100623.63;;;25.47;76.30
46954;BME280;32707;43.886;12.874;2022-08-19T07:34:07;100629.09;;;25.68;75.51
46954;BME280;32707;43.886;12.874;2022-08-19T07:36:34;100636.72;;;25.78;75.45
46954;BME280;32707;43.886;12.874;2022-08-19T07:39:04;100639.81;;;26.46;73.45
46954;BME280;32707;43.886;12.874;2022-08-19T07:41:30;100648.75;;;26.79;72.61
46954;BME280;32707;43.886;12.874;2022-08-19T07:43:57;100645.59;;;27.77;70.24
46954;BME280;32707;43.886;12.874;2022-08-19T07:46:23;100639.31;;;28.51;68.02
46954;BME280;32707;43.886;12.874;2022-08-19T07:48:50;100648.06;;;29.13;66.67
46954;BME280;32707;43.886;12.874;2022-08-19T07:51:19;100638.03;;;29.01;67.15
46954;BME280;32707;43.886;12.874;2022-08-19T07:53:47;100648.69;;;28.88;67.29
46954;BME280;32707;43.886;12.874;2022-08-19T07:56:14;100628.03;;;28.60;67.89
46954;BME280;32707;43.886;12.874;2022-08-19T07:58:42;100631.63;;;28.48;68.21
46954;BME280;32707;43.886;12.874;2022-08-19T08:01:11;100634.91;;;28.14;68.79
46954;BME280;32707;43.886;12.874;2022-08-19T08:03:38;100636.81;;;27.84;69.43
46954;BME280;32707;43.886;12.874;2022-08-19T08:06:22;100631.00;;;27.47;70.18
46954;BME280;32707;43.886;12.874;2022-08-19T08:09:07;100642.25;;;27.18;70.89
46954;BME280;32707;43.886;12.874;2022-08-19T08:11:57;100623.75;;;26.99;70.91
46954;BME280;32707;43.886;12.874;2022-08-19T08:14:27;100623.81;;;26.95;71.01
46954;BME280;32707;43.886;12.874;2022-08-19T08:16:53;100625.44;;;26.96;70.60
46954;BME280;32707;43.886;12.874;2022-08-19T08:19:21;100623.34;;;26.97;70.60
46954;BME280;32707;43.886;12.874;2022-08-19T08:21:49;100622.78;;;27.06;70.10
46954;BME280;32707;43.886;12.874;2022-08-19T08:24:18;100640.25;;;27.15;70.05
46954;BME280;32707;43.886;12.874;2022-08-19T08:26:44;100641.72;;;27.23;69.38
46954;BME280;32707;43.886;12.874;2022-08-19T08:29:13;100645.81;;;27.26;69.25
46954;BME280;32707;43.886;12.874;2022-08-19T08:31:42;100654.81;;;27.28;68.90
46954;BME280;32707;43.886;12.874;2022-08-19T08:34:08;100654.00;;;27.27;68.74
46954;BME280;32707;43.886;12.874;2022-08-19T08:36:41;100652.66;;;27.32;68.67
46954;BME280;32707;43.886;12.874;2022-08-19T08:39:08;100653.19;;;27.47;68.18
46954;BME280;32707;43.886;12.874;2022-08-19T08:41:51;100655.00;;;27.57;68.00
46954;BME280;32707;43.886;12.874;2022-08-19T08:44:49;100659.09;;;27.60;67.84
46954;BME280;32707;43.886;12.874;2022-08-19T08:47:19;100660.25;;;27.62;67.97
46954;BME280;32707;43.886;12.874;2022-08-19T08:50:00;100661.44;;;27.65;67.92
46954;BME280;32707;43.886;12.874;2022-08-19T08:52:31;100664.31;;;27.65;67.69
46954;BME280;32707;43.886;12.874;2022-08-19T08:55:05;100668.44;;;27.64;67.93
46954;BME280;32707;43.886;12.874;2022-08-19T09:00:37;100676.75;;;27.58;67.86
46954;BME280;32707;43.886;12.874;2022-08-19T09:03:08;100688.63;;;27.60;67.82
46954;BME280;32707;43.886;12.874;2022-08-19T09:05:38;100702.25;;;27.56;67.70
46954;BME280;32707;43.886;12.874;2022-08-19T09:08:13;100704.41;;;27.52;67.65
46954;BME280;32707;43.886;12.874;2022-08-19T09:10:49;100720.88;;;27.48;67.75
46954;BME280;32707;43.886;12.874;2022-08-19T09:15:53;100732.72;;;27.30;68.33
46954;BME280;32707;43.886;12.874;2022-08-19T09:18:21;100752.13;;;27.22;68.58
46954;BME280;32707;43.886;12.874;2022-08-19T09:20:47;100757.31;;;27.07;68.70
46954;BME280;32707;43.886;12.874;2022-08-19T09:23:13;100748.44;;;26.98;68.74
46954;BME280;32707;43.886;12.874;2022-08-19T09:25:38;100753.88;;;26.92;68.58
46954;BME280;32707;43.886;12.874;2022-08-19T09:28:05;100772.16;;;26.79;68.71
46954;BME280;32707;43.886;12.874;2022-08-19T09:30:34;100775.34;;;26.84;68.35
46954;BME280;32707;43.886;12.874;2022-08-19T09:33:02;100798.63;;;26.90;67.97
46954;BME280;32707;43.886;12.874;2022-08-19T09:35:29;100828.59;;;26.58;67.48
46954;BME280;32707;43.886;12.874;2022-08-19T09:37:56;100837.22;;;25.86;69.23
46954;BME280;32707;43.886;12.874;2022-08-19T09:40:22;100859.00;;;25.38;70.18
46954;BME280;32707;43.886;12.874;2022-08-19T09:42:50;100866.22;;;24.97;70.78
46954;BME280;32707;43.886;12.874;2022-08-19T09:45:18;100888.44;;;24.72;71.25
46954;BME280;32707;43.886;12.874;2022-08-19T09:47:46;100899.19;;;24.39;71.52
46954;BME280;32707;43.886;12.874;2022-08-19T09:50:12;100909.50;;;24.00;71.93
46954;BME280;32707;43.886;12.874;2022-08-19T09:52:39;100907.91;;;23.71;72.56
46954;BME280;32707;43.886;12.874;2022-08-19T09:55:06;100917.28;;;23.49;72.72
46954;BME280;32707;43.886;12.874;2022-08-19T09:57:33;100927.06;;;23.38;72.88
46954;BME280;32707;43.886;12.874;2022-08-19T09:59:58;100915.22;;;23.25;73.18
46954;BME280;32707;43.886;12.874;2022-08-19T10:02:24;100921.31;;;23.20;73.14
46954;BME280;32707;43.886;12.874;2022-08-19T10:04:53;100917.25;;;23.14;73.51
46954;BME280;32707;43.886;12.874;2022-08-19T10:07:37;100917.59;;;22.98;73.54
46954;BME280;32707;43.886;12.874;2022-08-19T10:10:04;100917.53;;;22.76;73.95
46954;BME280;32707;43.886;12.874;2022-08-19T10:12:32;100928.47;;;22.63;74.22
46954;BME280;32707;43.886;12.874;2022-08-19T10:14:58;100925.97;;;22.47;74.71
46954;BME280;32707;43.886;12.874;2022-08-19T10:17:24;100920.63;;;22.39;75.18
46954;BME280;32707;43.886;12.874;2022-08-19T10:19:50;100921.88;;;22.38;75.19
46954;BME280;32707;43.886;12.874;2022-08-19T10:22:19;100917.31;;;22.29;75.50
46954;BME280;32707;43.886;12.874;2022-08-19T10:24:50;100921.28;;;22.14;75.79
46954;BME280;32707;43.886;12.874;2022-08-19T10:27:17;100917.22;;;22.11;76.09
46954;BME280;32707;43.886;12.874;2022-08-19T10:29:45;100906.63;;;22.12;76.27
46954;BME280;32707;43.886;12.874;2022-08-19T10:32:10;100903.81;;;22.19;76.13
46954;BME280;32707;43.886;12.874;2022-08-19T10:34:37;100898.94;;;22.23;76.00
46954;BME280;32707;43.886;12.874;2022-08-19T10:37:04;100890.78;;;22.18;75.99
46954;BME280;32707;43.886;12.874;2022-08-19T10:39:34;100884.66;;;22.16;76.22
46954;BME280;32707;43.886;12.874;2022-08-19T10:42:05;100885.44;;;22.06;76.46
46954;BME280;32707;43.886;12.874;2022-08-19T10:44:32;100889.84;;;22.00;76.54
46954;BME280;32707;43.886;12.874;2022-08-19T10:46:57;100895.88;;;21.84;77.15
46954;BME280;32707;43.886;12.874;2022-08-19T10:49:24;100883.97;;;21.71;77.36
46954;BME280;32707;43.886;12.874;2022-08-19T10:51:49;100875.03;;;21.69;77.85
46954;BME280;32707;43.886;12.874;2022-08-19T10:54:33;100886.09;;;21.81;77.67
46954;BME280;32707;43.886;12.874;2022-08-19T10:57:17;100877.13;;;21.83;77.64
46954;BME280;32707;43.886;12.874;2022-08-19T10:59:42;100865.75;;;21.79;77.71
46954;BME280;32707;43.886;12.874;2022-08-19T11:02:11;100845.84;;;21.86;77.95
46954;BME280;32707;43.886;12.874;2022-08-19T11:04:38;100832.44;;;21.87;78.08
46954;BME280;32707;43.886;12.874;2022-08-19T11:07:05;100840.13;;;21.86;77.96
46954;BME280;32707;43.886;12.874;2022-08-19T11:09:35;100836.00;;;21.77;78.25
46954;BME280;32707;43.886;12.874;2022-08-19T11:12:03;100839.59;;;21.63;78.79
46954;BME280;32707;43.886;12.874;2022-08-19T11:14:28;100846.47;;;21.58;79.03
46954;BME280;32707;43.886;12.874;2022-08-19T11:16:56;100831.44;;;21.58;79.32
46954;BME280;32707;43.886;12.874;2022-08-19T11:19:22;100826.56;;;21.62;79.27
46954;BME280;32707;43.886;12.874;2022-08-19T11:21:49;100825.00;;;21.68;79.19
46954;BME280;32707;43.886;12.874;2022-08-19T11:24:18;100810.38;;;21.77;79.02
46954;BME280;32707;43.886;12.874;2022-08-19T11:26:45;100809.66;;;21.90;78.72
46954;BME280;32707;43.886;12.874;2022-08-19T11:29:12;100791.00;;;22.11;78.39
46954;BME280;32707;43.886;12.874;2022-08-19T11:31:40;100748.00;;;22.38;77.91
46954;BME280;32707;43.886;12.874;2022-08-19T11:34:09;100731.75;;;22.78;77.07
46954;BME280;32707;43.886;12.874;2022-08-19T11:36:37;100740.31;;;23.10;76.38
46954;BME280;32707;43.886;12.874;2022-08-19T11:39:06;100745.59;;;23.33;75.59
46954;BME280;32707;43.886;12.874;2022-08-19T11:41:32;100739.41;;;23.56;75.22
46954;BME280;32707;43.886;12.874;2022-08-19T11:43:57;100732.81;;;23.84;74.54
46954;BME280;32707;43.886;12.874;2022-08-19T11:46:24;100723.72;;;24.08;73.70
46954;BME280;32707;43.886;12.874;2022-08-19T11:48:50;100709.47;;;24.67;72.37
46954;BME280;32707;43.886;12.874;2022-08-19T11:51:19;100685.63;;;25.64;70.26
46954;BME280;32707;43.886;12.874;2022-08-19T11:53:45;100683.03;;;26.86;66.92
46954;BME280;32707;43.886;12.874;2022-08-19T11:56:11;100687.59;;;27.70;65.01
46954;BME280;32707;43.886;12.874;2022-08-19T11:58:38;100679.53;;;28.38;63.30
46954;BME280;32707;43.886;12.874;2022-08-19T12:01:08;100674.50;;;28.92;61.45
46954;BME280;32707;43.886;12.874;2022-08-19T12:03:34;100682.44;;;29.04;61.56
46954;BME280;32707;43.886;12.874;2022-08-19T12:06:09;100687.22;;;29.40;61.10
46954;BME280;32707;43.886;12.874;2022-08-19T12:08:34;100713.91;;;29.27;61.61
46954;BME280;32707;43.886;12.874;2022-08-19T12:11:00;100716.16;;;29.03;62.14
46954;BME280;32707;43.886;12.874;2022-08-19T12:13:32;100701.59;;;28.94;62.54
46954;BME280;32707;43.886;12.874;2022-08-19T12:15:57;100712.22;;;28.81;62.84
46954;BME280;32707;43.886;12.874;2022-08-19T12:18:23;100711.22;;;29.04;61.82
46954;BME280;32707;43.886;12.874;2022-08-19T12:20:51;100707.78;;;29.25;61.20
46954;BME280;32707;43.886;12.874;2022-08-19T12:23:17;100723.78;;;30.27;58.74
46954;BME280;32707;43.886;12.874;2022-08-19T12:25:45;100723.63;;;30.60;57.49
46954;BME280;32707;43.886;12.874;2022-08-19T12:28:21;100726.56;;;30.31;58.52
46954;BME280;32707;43.886;12.874;2022-08-19T12:30:47;100728.00;;;30.39;58.69
46954;BME280;32707;43.886;12.874;2022-08-19T12:33:13;100721.59;;;30.31;58.90
46954;BME280;32707;43.886;12.874;2022-08-19T12:35:43;100718.16;;;29.52;59.98
46954;BME280;32707;43.886;12.874;2022-08-19T12:38:10;100727.16;;;28.76;61.86
46954;BME280;32707;43.886;12.874;2022-08-19T12:40:36;100749.72;;;28.24;63.07
46954;BME280;32707;43.886;12.874;2022-08-19T12:43:02;100748.53;;;27.62;64.20
46954;BME280;32707;43.886;12.874;2022-08-19T12:45:28;100754.00;;;27.09;65.45
46954;BME280;32707;43.886;12.874;2022-08-19T12:47:54;100759.63;;;26.65;66.40
46954;BME280;32707;43.886;12.874;2022-08-19T12:50:19;100768.38;;;26.24;67.05
46954;BME280;32707;43.886;12.874;2022-08-19T12:52:47;100765.53;;;25.89;67.64
46954;BME280;32707;43.886;12.874;2022-08-19T12:55:13;100787.16;;;25.59;68.02
46954;BME280;32707;43.886;12.874;2022-08-19T12:57:40;100793.56;;;25.33;68.42
46954;BME280;32707;43.886;12.874;2022-08-19T13:00:11;100813.72;;;25.15;68.81
46954;BME280;32707;43.886;12.874;2022-08-19T13:02:39;100816.25;;;25.06;68.77
46954;BME280;32707;43.886;12.874;2022-08-19T13:05:08;100813.88;;;24.97;68.76
46954;BME280;32707;43.886;12.874;2022-08-19T13:07:36;100802.09;;;24.88;68.86
46954;BME280;32707;43.886;12.874;2022-08-19T13:10:04;100809.91;;;24.80;69.00
46954;BME280;32707;43.886;12.874;2022-08-19T13:12:30;100811.56;;;24.77;69.01
46954;BME280;32707;43.886;12.874;2022-08-19T13:14:55;100813.59;;;24.80;68.86
46954;BME280;32707;43.886;12.874;2022-08-19T13:17:21;100811.88;;;24.90;68.67
46954;BME280;32707;43.886;12.874;2022-08-19T13:19:47;100815.78;;;25.14;67.93
46954;BME280;32707;43.886;12.874;2022-08-19T13:22:13;100806.09;;;25.50;67.17
46954;BME280;32707;43.886;12.874;2022-08-19T13:24:38;100809.13;;;25.73;66.53
46954;BME280;32707;43.886;12.874;2022-08-19T13:27:04;100808.91;;;25.91;66.13
46954;BME280;32707;43.886;12.874;2022-08-19T13:29:30;100806.34;;;26.04;66.12
46954;BME280;32707;43.886;12.874;2022-08-19T13:32:14;100814.13;;;26.04;66.27
46954;BME280;32707;43.886;12.874;2022-08-19T13:34:57;100823.69;;;25.86;66.65
46954;BME280;32707;43.886;12.874;2022-08-19T13:37:23;100817.41;;;25.64;67.11
46954;BME280;32707;43.886;12.874;2022-08-19T13:40:09;100806.09;;;25.50;67.62
46954;BME280;32707;43.886;12.874;2022-08-19T13:42:41;100811.03;;;25.46;67.89
46954;BME280;32707;43.886;12.874;2022-08-19T13:45:07;100814.34;;;25.40;67.88
46954;BME280;32707;43.886;12.874;2022-08-19T13:47:33;100811.50;;;25.40;67.77
46954;BME280;32707;43.886;12.874;2022-08-19T13:50:13;100811.81;;;25.50;67.67
46954;BME280;32707;43.886;12.874;2022-08-19T13:52:42;100821.91;;;25.61;67.66
46954;BME280;32707;43.886;12.874;2022-08-19T13:55:09;100800.41;;;25.84;66.95
46954;BME280;32707;43.886;12.874;2022-08-19T13:57:36;100812.91;;;26.35;65.83
46954;BME280;32707;43.886;12.874;2022-08-19T14:00:06;100802.81;;;26.82;64.58
46954;BME280;32707;43.886;12.874;2022-08-19T14:02:36;100803.78;;;26.99;64.04
46954;BME280;32707;43.886;12.874;2022-08-19T14:05:04;100803.41;;;26.96;64.21
46954;BME280;32707;43.886;12.874;2022-08-19T14:07:30;100799.00;;;27.15;63.52
46954;BME280;32707;43.886;12.874;2022-08-19T14:09:56;100808.00;;;27.65;62.80
46954;BME280;32707;43.886;12.874;2022-08-19T14:12:21;100798.84;;;27.94;61.43
46954;BME280;32707;43.886;12.874;2022-08-19T14:14:47;100810.31;;;28.34;60.80
46954;BME280;32707;43.886;12.874;2022-08-19T14:17:13;100820.53;;;28.75;59.85
46954;BME280;32707;43.886;12.874;2022-08-19T14:19:39;100822.69;;;28.71;60.02
46954;BME280;32707;43.886;12.874;2022-08-19T14:22:04;100813.34;;;28.26;61.03
46954;BME280;32707;43.886;12.874;2022-08-19T14:24:31;100813.47;;;27.79;62.24
46954;BME280;32707;43.886;12.874;2022-08-19T14:27:00;100811.72;;;27.42;62.87
46954;BME280;32707;43.886;12.874;2022-08-19T14:29:26;100813.63;;;27.25;63.69
46954;BME280;32707;43.886;12.874;2022-08-19T14:31:54;100818.66;;;27.17;63.40
46954;BME280;32707;43.886;12.874;2022-08-19T14:34:21;100803.16;;;27.38;63.20
46954;BME280;32707;43.886;12.874;2022-08-19T14:36:47;100799.84;;;27.83;61.79
46954;BME280;32707;43.886;12.874;2022-08-19T14:39:12;100796.13;;;28.06;61.37
46954;BME280;32707;43.886;12.874;2022-08-19T14:41:40;100793.19;;;28.46;60.09
46954;BME280;32707;43.886;12.874;2022-08-19T14:44:08;100783.47;;;28.77;59.22
46954;BME280;32707;43.886;12.874;2022-08-19T14:46:38;100780.88;;;28.82;59.27
46954;BME280;32707;43.886;12.874;2022-08-19T14:49:04;100789.75;;;28.35;60.18
46954;BME280;32707;43.886;12.874;2022-08-19T14:51:30;100779.81;;;28.00;61.11
46954;BME280;32707;43.886;12.874;2022-08-19T14:53:57;100788.34;;;27.63;61.73
46954;BME280;32707;43.886;12.874;2022-08-19T14:56:25;100796.09;;;27.43;62.34
46954;BME280;32707;43.886;12.874;2022-08-19T14:58:52;100791.03;;;27.27;63.05
46954;BME280;32707;43.886;12.874;2022-08-19T15:01:19;100785.53;;;27.12;62.98
46954;BME280;32707;43.886;12.874;2022-08-19T15:03:48;100783.25;;;27.00;63.30
46954;BME280;32707;43.886;12.874;2022-08-19T15:06:15;100790.31;;;26.95;62.92
46954;BME280;32707;43.886;12.874;2022-08-19T15:08:42;100790.88;;;26.87;63.50
46954;BME280;32707;43.886;12.874;2022-08-19T15:11:12;100789.38;;;26.79;63.57
46954;BME280;32707;43.886;12.874;2022-08-19T15:13:43;100783.91;;;26.57;63.81
46954;BME280;32707;43.886;12.874;2022-08-19T15:16:10;100789.63;;;26.30;64.40
46954;BME280;32707;43.886;12.874;2022-08-19T15:18:40;100793.53;;;26.12;65.06
46954;BME280;32707;43.886;12.874;2022-08-19T15:21:13;100791.28;;;25.96;65.07
46954;BME280;32707;43.886;12.874;2022-08-19T15:23:40;100788.16;;;25.80;65.41
46954;BME280;32707;43.886;12.874;2022-08-19T15:26:06;100801.88;;;25.61;65.92
46954;BME280;32707;43.886;12.874;2022-08-19T15:28:33;100801.19;;;25.47;66.11
46954;BME280;32707;43.886;12.874;2022-08-19T15:31:02;100803.78;;;25.34;66.43
46954;BME280;32707;43.886;12.874;2022-08-19T15:33:31;100811.22;;;25.24;66.76
46954;BME280;32707;43.886;12.874;2022-08-19T15:35:57;100822.69;;;25.17;66.95
46954;BME280;32707;43.886;12.874;2022-08-19T15:38:23;100824.81;;;25.09;67.18
46954;BME280;32707;43.886;12.874;2022-08-19T15:40:51;100823.25;;;25.01;67.35
46954;BME280;32707;43.886;12.874;2022-08-19T15:43:18;100817.16;;;24.95;67.45
46954;BME280;32707;43.886;12.874;2022-08-19T15:45:46;100829.84;;;24.91;67.64
46954;BME280;32707;43.886;12.874;2022-08-19T15:48:12;100836.47;;;24.84;67.78
46954;BME280;32707;43.886;12.874;2022-08-19T15:50:38;100841.00;;;24.78;67.93
46954;BME280;32707;43.886;12.874;2022-08-19T15:53:06;100833.66;;;24.73;68.08
46954;BME280;32707;43.886;12.874;2022-08-19T15:55:40;100835.72;;;24.73;68.27
46954;BME280;32707;43.886;12.874;2022-08-19T15:58:08;100841.03;;;24.71;68.24
46954;BME280;32707;43.886;12.874;2022-08-19T16:00:52;100841.03;;;24.71;68.29
46954;BME280;32707;43.886;12.874;2022-08-19T16:03:36;100835.31;;;24.71;68.28
46954;BME280;32707;43.886;12.874;2022-08-19T16:06:20;100833.28;;;24.68;68.42
46954;BME280;32707;43.886;12.874;2022-08-19T16:08:57;100831.28;;;24.64;68.46
46954;BME280;32707;43.886;12.874;2022-08-19T16:11:26;100833.31;;;24.64;68.57
46954;BME280;32707;43.886;12.874;2022-08-19T16:13:53;100838.63;;;24.62;68.75
46954;BME280;32707;43.886;12.874;2022-08-19T16:16:28;100838.63;;;24.62;68.80
46954;BME280;32707;43.886;12.874;2022-08-19T16:18:56;100858.25;;;24.60;68.92
46954;BME280;32707;43.886;12.874;2022-08-19T16:21:23;100862.78;;;24.54;69.02
46954;BME280;32707;43.886;12.874;2022-08-19T16:23:51;100875.50;;;24.38;69.23
46954;BME280;32707;43.886;12.874;2022-08-19T16:26:21;100874.78;;;24.05;70.21
46954;BME280;32707;43.886;12.874;2022-08-19T16:31:50;100873.22;;;23.07;72.11
46954;BME280;32707;43.886;12.874;2022-08-19T16:34:18;100862.13;;;22.77;72.85
46954;BME280;32707;43.886;12.874;2022-08-19T16:36:44;100861.28;;;22.69;73.45
46954;BME280;32707;43.886;12.874;2022-08-19T16:39:11;100834.81;;;22.62;73.66
46954;BME280;32707;43.886;12.874;2022-08-19T16:41:38;100831.94;;;22.58;74.04
46954;BME280;32707;43.886;12.874;2022-08-19T16:44:05;100829.88;;;22.55;74.31
46954;BME280;32707;43.886;12.874;2022-08-19T16:46:31;100829.84;;;22.48;74.54
46954;BME280;32707;43.886;12.874;2022-08-19T16:48:56;100827.81;;;22.38;75.32
46954;BME280;32707;43.886;12.874;2022-08-19T16:51:23;100837.16;;;22.35;75.73
46954;BME280;32707;43.886;12.874;2022-08-19T16:53:48;100844.47;;;22.32;76.16
46954;BME280;32707;43.886;12.874;2022-08-19T16:56:17;100846.06;;;22.29;76.29
46954;BME280;32707;43.886;12.874;2022-08-19T16:58:47;100850.09;;;22.21;76.68
46954;BME280;32707;43.886;12.874;2022-08-19T17:01:15;100850.84;;;22.14;77.11
46954;BME280;32707;43.886;12.874;2022-08-19T17:03:41;100848.81;;;22.08;77.34
46954;BME280;32707;43.886;12.874;2022-08-19T17:06:14;100838.59;;;22.03;77.64
46954;BME280;32707;43.886;12.874;2022-08-19T17:08:41;100833.75;;;22.04;77.61
46954;BME280;32707;43.886;12.874;2022-08-19T17:11:07;100839.03;;;22.02;77.69
46954;BME280;32707;43.886;12.874;2022-08-19T17:13:33;100826.38;;;21.99;77.84
46954;BME280;32707;43.886;12.874;2022-08-19T17:15:59;100831.25;;;21.95;78.06
46954;BME280;32707;43.886;12.874;2022-08-19T17:18:24;100832.88;;;21.92;78.20
46954;BME280;32707;43.886;12.874;2022-08-19T17:20:51;100829.59;;;21.90;78.06
46954;BME280;32707;43.886;12.874;2022-08-19T17:23:18;100838.50;;;21.82;78.43
46954;BME280;32707;43.886;12.874;2022-08-19T17:25:46;100835.63;;;21.78;78.42
46954;BME280;32707;43.886;12.874;2022-08-19T17:28:24;100830.25;;;21.66;78.66
46954;BME280;32707;43.886;12.874;2022-08-19T17:30:50;100836.75;;;21.63;78.76
46954;BME280;32707;43.886;12.874;2022-08-19T17:33:16;100829.44;;;21.65;78.65
46954;BME280;32707;43.886;12.874;2022-08-19T17:35:42;100827.41;;;21.66;78.56
46954;BME280;32707;43.886;12.874;2022-08-19T17:38:15;100830.28;;;21.69;78.61
46954;BME280;32707;43.886;12.874;2022-08-19T17:40:43;100833.97;;;21.73;78.46
46954;BME280;32707;43.886;12.874;2022-08-19T17:43:12;100836.03;;;21.80;78.25
46954;BME280;32707;43.886;12.874;2022-08-19T17:45:40;100836.03;;;21.80;78.37
46954;BME280;32707;43.886;12.874;2022-08-19T17:48:07;100835.25;;;21.83;78.19
46954;BME280;32707;43.886;12.874;2022-08-19T17:50:34;100840.53;;;21.81;78.26
46954;BME280;32707;43.886;12.874;2022-08-19T17:53:03;100842.91;;;21.72;78.37
46954;BME280;32707;43.886;12.874;2022-08-19T17:55:30;100846.91;;;21.64;78.63
46954;BME280;32707;43.886;12.874;2022-08-19T17:57:56;100847.31;;;21.59;78.63
46954;BME280;32707;43.886;12.874;2022-08-19T18:00:22;100845.25;;;21.55;78.80
46954;BME280;32707;43.886;12.874;2022-08-19T18:02:57;100839.50;;;21.52;78.65
46954;BME280;32707;43.886;12.874;2022-08-19T18:05:27;100842.75;;;21.50;78.97
46954;BME280;32707;43.886;12.874;2022-08-19T18:07:55;100843.97;;;21.49;79.22
46954;BME280;32707;43.886;12.874;2022-08-19T18:10:22;100844.75;;;21.46;79.23
46954;BME280;32707;43.886;12.874;2022-08-19T18:12:49;100839.47;;;21.45;79.51
46954;BME280;32707;43.886;12.874;2022-08-19T18:15:15;100842.72;;;21.47;79.61
46954;BME280;32707;43.886;12.874;2022-08-19T18:17:41;100839.41;;;21.41;79.83
46954;BME280;32707;43.886;12.874;2022-08-19T18:20:10;100848.31;;;21.40;80.05
46954;BME280;32707;43.886;12.874;2022-08-19T18:22:41;100849.59;;;21.42;80.17
46954;BME280;32707;43.886;12.874;2022-08-19T18:25:14;100856.53;;;21.45;80.32
46954;BME280;32707;43.886;12.874;2022-08-19T18:27:47;100867.53;;;21.46;80.45
46954;BME280;32707;43.886;12.874;2022-08-19T18:30:13;100865.50;;;21.47;80.51
46954;BME280;32707;43.886;12.874;2022-08-19T18:32:39;100870.38;;;21.46;80.57
46954;BME280;32707;43.886;12.874;2022-08-19T18:35:11;100876.88;;;21.47;81.12
46954;BME280;32707;43.886;12.874;2022-08-19T18:37:39;100884.19;;;21.44;81.02
46954;BME280;32707;43.886;12.874;2022-08-19T18:40:06;100886.97;;;21.41;81.16
46954;BME280;32707;43.886;12.874;2022-08-19T18:42:50;100909.66;;;21.33;81.39
46954;BME280;32707;43.886;12.874;2022-08-19T18:45:34;100907.63;;;21.30;81.77
46954;BME280;32707;43.886;12.874;2022-08-19T18:48:18;100908.81;;;21.29;81.82
46954;BME280;32707;43.886;12.874;2022-08-19T18:51:03;100910.44;;;21.27;81.92
46954;BME280;32707;43.886;12.874;2022-08-19T18:53:31;100900.25;;;21.26;82.17